sensor_id;sensor_type;location;lat;lon;timestamp;pressure;altitude;pressure_sealevel;temperature
14023;BMP180;7086;48.116;11.580;2023-08-12T00:00:47;95780.00;;;23.80
14023;BMP180;7086;48.116;11.580;2023-08-12T00:03:13;95773.00;;;23.80
14023;BMP180;7086;48.116;11.580;2023-08-12T00:05:40;95773.00;;;23.80
14023;BMP180;7086;48.116;11.580;2023-08-12T00:08:08;95770.00;;;23.80
14023;BMP180;7086;48.116;11.580;2023-08-12T00:10:36;95772.00;;;23.70
14023;BMP180;7086;48.116;11.580;2023-08-12T00:13:03;95772.00;;;23.60
14023;BMP180;7086;48.116;11.580;2023-08-12T00:15:30;95775.00;;;23.70
14023;BMP180;7086;48.116;11.580;2023-08-12T00:17:57;95763.00;;;23.70
14023;BMP180;7086;48.116;11.580;2023-08-12T00:20:24;95748.00;;;23.60
14023;BMP180;7086;48.116;11.580;2023-08-12T00:22:50;95758.00;;;23.60
14023;BMP180;7086;48.116;11.580;2023-08-12T00:25:17;95771.00;;;23.60
14023;BMP180;7086;48.116;11.580;2023-08-12T00:27:45;95756.00;;;23.50
14023;BMP180;7086;48.116;11.580;2023-08-12T00:30:12;95759.00;;;23.50
14023;BMP180;7086;48.116;11.580;2023-08-12T00:32:39;95753.00;;;23.40
14023;BMP180;7086;48.116;11.580;2023-08-12T00:35:06;95760.00;;;23.40
14023;BMP180;7086;48.116;11.580;2023-08-12T00:37:33;95753.00;;;23.40
14023;BMP180;7086;48.116;11.580;2023-08-12T00:40:00;95746.00;;;23.30
14023;BMP180;7086;48.116;11.580;2023-08-12T00:42:27;95747.00;;;23.30
14023;BMP180;7086;48.116;11.580;2023-08-12T00:44:55;95745.00;;;23.30
14023;BMP180;7086;48.116;11.580;2023-08-12T00:47:22;95749.00;;;23.30
14023;BMP180;7086;48.116;11.580;2023-08-12T00:49:49;95736.00;;;23.20
14023;BMP180;7086;48.116;11.580;2023-08-12T00:52:17;95744.00;;;23.20
14023;BMP180;7086;48.116;11.580;2023-08-12T00:54:44;95743.00;;;23.20
14023;BMP180;7086;48.116;11.580;2023-08-12T00:57:11;95740.00;;;23.10
14023;BMP180;7086;48.116;11.580;2023-08-12T00:59:39;95746.00;;;23.10
14023;BMP180;7086;48.116;11.580;2023-08-12T01:02:09;95743.00;;;23.10
14023;BMP180;7086;48.116;11.580;2023-08-12T01:04:37;95745.00;;;23.00
14023;BMP180;7086;48.116;11.580;2023-08-12T01:07:03;95727.00;;;23.00
14023;BMP180;7086;48.116;11.580;2023-08-12T01:09:31;95738.00;;;23.00
14023;BMP180;7086;48.116;11.580;2023-08-12T01:12:02;95741.00;;;22.90
14023;BMP180;7086;48.116;11.580;2023-08-12T01:14:36;95736.00;;;23.00
14023;BMP180;7086;48.116;11.580;2023-08-12T01:17:06;95734.00;;;22.90
14023;BMP180;7086;48.116;11.580;2023-08-12T01:19:37;95729.00;;;22.80
14023;BMP180;7086;48.116;11.580;2023-08-12T01:22:09;95724.00;;;22.90
14023;BMP180;7086;48.116;11.580;2023-08-12T01:24:38;95722.00;;;22.90
14023;BMP180;7086;48.116;11.580;2023-08-12T01:27:06;95717.00;;;22.80
14023;BMP180;7086;48.116;11.580;2023-08-12T01:29:33;95716.00;;;22.80
14023;BMP180;7086;48.116;11.580;2023-08-12T01:32:07;95725.00;;;22.70
14023;BMP180;7086;48.116;11.580;2023-08-12T01:34:41;95727.00;;;22.70
14023;BMP180;7086;48.116;11.580;2023-08-12T01:37:11;95721.00;;;22.70
14023;BMP180;7086;48.116;11.580;2023-08-12T01:39:42;95718.00;;;22.70
14023;BMP180;7086;48.116;11.580;2023-08-12T01:42:10;95721.00;;;22.40
14023;BMP180;7086;48.116;11.580;2023-08-12T01:44:38;95715.00;;;22.60
14023;BMP180;7086;48.116;11.580;2023-08-12T01:47:05;95689.00;;;22.60
14023;BMP180;7086;48.116;11.580;2023-08-12T01:49:32;95710.00;;;22.60
14023;BMP180;7086;48.116;11.580;2023-08-12T01:51:59;95708.00;;;22.60
14023;BMP180;7086;48.116;11.580;2023-08-12T01:54:26;95714.00;;;22.50
14023;BMP180;7086;48.116;11.580;2023-08-12T01:57:00;95707.00;;;22.50
14023;BMP180;7086;48.116;11.580;2023-08-12T01:59:27;95709.00;;;22.40
14023;BMP180;7086;48.116;11.580;2023-08-12T02:01:53;95708.00;;;22.40
14023;BMP180;7086;48.116;11.580;2023-08-12T02:04:20;95706.00;;;22.40
14023;BMP180;7086;48.116;11.580;2023-08-12T02:06:47;95707.00;;;22.30
14023;BMP180;7086;48.116;11.580;2023-08-12T02:09:15;95706.00;;;22.30
14023;BMP180;7086;48.116;11.580;2023-08-12T02:11:41;95682.00;;;22.30
14023;BMP180;7086;48.116;11.580;2023-08-12T02:14:10;95698.00;;;22.30
14023;BMP180;7086;48.116;11.580;2023-08-12T02:16:36;95697.00;;;22.20
14023;BMP180;7086;48.116;11.580;2023-08-12T02:19:03;95694.00;;;22.20
14023;BMP180;7086;48.116;11.580;2023-08-12T02:21:30;95682.00;;;22.20
14023;BMP180;7086;48.116;11.580;2023-08-12T02:23:57;95674.00;;;22.10
14023;BMP180;7086;48.116;11.580;2023-08-12T02:26:24;95675.00;;;22.10
14023;BMP180;7086;48.116;11.580;2023-08-12T02:28:50;95676.00;;;22.00
14023;BMP180;7086;48.116;11.580;2023-08-12T02:31:18;95675.00;;;22.00
14023;BMP180;7086;48.116;11.580;2023-08-12T02:33:45;95677.00;;;22.00
14023;BMP180;7086;48.116;11.580;2023-08-12T02:36:12;95647.00;;;22.00
14023;BMP180;7086;48.116;11.580;2023-08-12T02:38:39;95671.00;;;21.80
14023;BMP180;7086;48.116;11.580;2023-08-12T02:41:05;95670.00;;;21.90
14023;BMP180;7086;48.116;11.580;2023-08-12T02:43:32;95665.00;;;21.80
14023;BMP180;7086;48.116;11.580;2023-08-12T02:45:59;95665.00;;;21.90
14023;BMP180;7086;48.116;11.580;2023-08-12T02:48:27;95661.00;;;21.80
14023;BMP180;7086;48.116;11.580;2023-08-12T02:50:54;95656.00;;;21.70
14023;BMP180;7086;48.116;11.580;2023-08-12T02:53:20;95656.00;;;21.70
14023;BMP180;7086;48.116;11.580;2023-08-12T02:55:47;95652.00;;;21.80
14023;BMP180;7086;48.116;11.580;2023-08-12T02:58:14;95652.00;;;21.80
14023;BMP180;7086;48.116;11.580;2023-08-12T03:00:41;95648.00;;;21.80
14023;BMP180;7086;48.116;11.580;2023-08-12T03:03:07;95647.00;;;21.80
14023;BMP180;7086;48.116;11.580;2023-08-12T03:05:35;95642.00;;;21.70
14023;BMP180;7086;48.116;11.580;2023-08-12T03:08:02;95647.00;;;21.70
14023;BMP180;7086;48.116;11.580;2023-08-12T03:10:30;95642.00;;;21.70
14023;BMP180;7086;48.116;11.580;2023-08-12T03:12:56;95653.00;;;21.60
14023;BMP180;7086;48.116;11.580;2023-08-12T03:15:23;95647.00;;;21.70
14023;BMP180;7086;48.116;11.580;2023-08-12T03:17:50;95662.00;;;21.60
14023;BMP180;7086;48.116;11.580;2023-08-12T03:20:17;95663.00;;;21.60
14023;BMP180;7086;48.116;11.580;2023-08-12T03:22:45;95657.00;;;21.60
14023;BMP180;7086;48.116;11.580;2023-08-12T03:25:12;95652.00;;;21.60
14023;BMP180;7086;48.116;11.580;2023-08-12T03:27:40;95654.00;;;21.60
14023;BMP180;7086;48.116;11.580;2023-08-12T03:30:09;95652.00;;;21.60
14023;BMP180;7086;48.116;11.580;2023-08-12T03:32:36;95654.00;;;21.60
14023;BMP180;7086;48.116;11.580;2023-08-12T03:35:03;95646.00;;;21.50
14023;BMP180;7086;48.116;11.580;2023-08-12T03:37:30;95649.00;;;21.40
14023;BMP180;7086;48.116;11.580;2023-08-12T03:39:58;95653.00;;;21.50
14023;BMP180;7086;48.116;11.580;2023-08-12T03:42:25;95644.00;;;21.40
14023;BMP180;7086;48.116;11.580;2023-08-12T03:44:52;95651.00;;;21.50
14023;BMP180;7086;48.116;11.580;2023-08-12T03:47:18;95642.00;;;21.50
14023;BMP180;7086;48.116;11.580;2023-08-12T03:49:49;95645.00;;;21.50
14023;BMP180;7086;48.116;11.580;2023-08-12T03:52:15;95648.00;;;21.40
14023;BMP180;7086;48.116;11.580;2023-08-12T03:54:42;95640.00;;;21.40
14023;BMP180;7086;48.116;11.580;2023-08-12T03:57:11;95663.00;;;21.40
14023;BMP180;7086;48.116;11.580;2023-08-12T03:59:38;95647.00;;;21.40
14023;BMP180;7086;48.116;11.580;2023-08-12T04:02:05;95645.00;;;21.40
14023;BMP180;7086;48.116;11.580;2023-08-12T04:04:32;95616.00;;;21.40
14023;BMP180;7086;48.116;11.580;2023-08-12T04:06:59;95627.00;;;21.40
14023;BMP180;7086;48.116;11.580;2023-08-12T04:09:26;95643.00;;;21.50
14023;BMP180;7086;48.116;11.580;2023-08-12T04:11:53;95620.00;;;21.40
14023;BMP180;7086;48.116;11.580;2023-08-12T04:14:21;95642.00;;;21.50
14023;BMP180;7086;48.116;11.580;2023-08-12T04:16:48;95643.00;;;21.50
14023;BMP180;7086;48.116;11.580;2023-08-12T04:19:14;95649.00;;;21.50
14023;BMP180;7086;48.116;11.580;2023-08-12T04:21:41;95647.00;;;21.50
14023;BMP180;7086;48.116;11.580;2023-08-12T04:24:11;95652.00;;;21.50
14023;BMP180;7086;48.116;11.580;2023-08-12T04:26:38;95643.00;;;21.40
14023;BMP180;7086;48.116;11.580;2023-08-12T04:29:05;95644.00;;;21.40
14023;BMP180;7086;48.116;11.580;2023-08-12T04:31:33;95651.00;;;21.40
14023;BMP180;7086;48.116;11.580;2023-08-12T04:33:59;95649.00;;;21.40
14023;BMP180;7086;48.116;11.580;2023-08-12T04:36:26;95649.00;;;21.40
14023;BMP180;7086;48.116;11.580;2023-08-12T04:38:53;95645.00;;;21.30
14023;BMP180;7086;48.116;11.580;2023-08-12T04:41:20;95652.00;;;21.30
14023;BMP180;7086;48.116;11.580;2023-08-12T04:43:49;95650.00;;;21.30
14023;BMP180;7086;48.116;11.580;2023-08-12T04:46:16;95658.00;;;21.30
14023;BMP180;7086;48.116;11.580;2023-08-12T04:48:44;95647.00;;;21.30
14023;BMP180;7086;48.116;11.580;2023-08-12T04:51:12;95647.00;;;21.40
14023;BMP180;7086;48.116;11.580;2023-08-12T04:53:40;95653.00;;;21.40
14023;BMP180;7086;48.116;11.580;2023-08-12T04:56:06;95654.00;;;21.40
14023;BMP180;7086;48.116;11.580;2023-08-12T04:58:33;95651.00;;;21.40
14023;BMP180;7086;48.116;11.580;2023-08-12T05:01:00;95654.00;;;21.40
14023;BMP180;7086;48.116;11.580;2023-08-12T05:03:28;95646.00;;;21.40
14023;BMP180;7086;48.116;11.580;2023-08-12T05:05:56;95661.00;;;21.50
14023;BMP180;7086;48.116;11.580;2023-08-12T05:08:23;95655.00;;;21.50
14023;BMP180;7086;48.116;11.580;2023-08-12T05:10:50;95652.00;;;21.60
14023;BMP180;7086;48.116;11.580;2023-08-12T05:13:17;95649.00;;;21.70
14023;BMP180;7086;48.116;11.580;2023-08-12T05:15:45;95646.00;;;21.80
14023;BMP180;7086;48.116;11.580;2023-08-12T05:18:12;95640.00;;;21.80
14023;BMP180;7086;48.116;11.580;2023-08-12T05:20:39;95650.00;;;21.90
14023;BMP180;7086;48.116;11.580;2023-08-12T05:23:07;95626.00;;;22.00
14023;BMP180;7086;48.116;11.580;2023-08-12T05:25:34;95613.00;;;22.00
14023;BMP180;7086;48.116;11.580;2023-08-12T05:28:01;95639.00;;;22.10
14023;BMP180;7086;48.116;11.580;2023-08-12T05:30:28;95651.00;;;22.20
14023;BMP180;7086;48.116;11.580;2023-08-12T05:32:54;95648.00;;;22.30
14023;BMP180;7086;48.116;11.580;2023-08-12T05:35:21;95644.00;;;22.40
14023;BMP180;7086;48.116;11.580;2023-08-12T05:37:48;95643.00;;;22.50
14023;BMP180;7086;48.116;11.580;2023-08-12T05:40:16;95641.00;;;22.50
14023;BMP180;7086;48.116;11.580;2023-08-12T05:42:43;95627.00;;;22.60
14023;BMP180;7086;48.116;11.580;2023-08-12T05:45:10;95644.00;;;22.70
14023;BMP180;7086;48.116;11.580;2023-08-12T05:47:37;95649.00;;;22.80
14023;BMP180;7086;48.116;11.580;2023-08-12T05:50:04;95651.00;;;22.90
14023;BMP180;7086;48.116;11.580;2023-08-12T05:52:32;95649.00;;;23.00
14023;BMP180;7086;48.116;11.580;2023-08-12T05:54:58;95645.00;;;23.20
14023;BMP180;7086;48.116;11.580;2023-08-12T05:57:27;95647.00;;;23.30
14023;BMP180;7086;48.116;11.580;2023-08-12T05:59:53;95646.00;;;23.40
14023;BMP180;7086;48.116;11.580;2023-08-12T06:02:20;95631.00;;;23.60
14023;BMP180;7086;48.116;11.580;2023-08-12T06:04:47;95650.00;;;23.70
14023;BMP180;7086;48.116;11.580;2023-08-12T06:07:13;95650.00;;;23.90
14023;BMP180;7086;48.116;11.580;2023-08-12T06:09:40;95643.00;;;24.00
14023;BMP180;7086;48.116;11.580;2023-08-12T06:12:07;95638.00;;;24.20
14023;BMP180;7086;48.116;11.580;2023-08-12T06:14:37;95644.00;;;24.40
14023;BMP180;7086;48.116;11.580;2023-08-12T06:17:04;95635.00;;;24.80
14023;BMP180;7086;48.116;11.580;2023-08-12T06:19:30;95646.00;;;25.30
14023;BMP180;7086;48.116;11.580;2023-08-12T06:21:57;95646.00;;;25.90
14023;BMP180;7086;48.116;11.580;2023-08-12T06:24:24;95625.00;;;26.60
14023;BMP180;7086;48.116;11.580;2023-08-12T06:26:51;95644.00;;;27.20
14023;BMP180;7086;48.116;11.580;2023-08-12T06:29:17;95637.00;;;27.90
14023;BMP180;7086;48.116;11.580;2023-08-12T06:31:45;95645.00;;;28.70
14023;BMP180;7086;48.116;11.580;2023-08-12T06:34:12;95645.00;;;29.50
14023;BMP180;7086;48.116;11.580;2023-08-12T06:36:39;95649.00;;;30.20
14023;BMP180;7086;48.116;11.580;2023-08-12T06:39:06;95645.00;;;30.90
14023;BMP180;7086;48.116;11.580;2023-08-12T06:41:32;95643.00;;;31.60
14023;BMP180;7086;48.116;11.580;2023-08-12T06:43:59;95649.00;;;32.30
14023;BMP180;7086;48.116;11.580;2023-08-12T06:46:26;95645.00;;;33.00
14023;BMP180;7086;48.116;11.580;2023-08-12T06:48:55;95639.00;;;33.60
14023;BMP180;7086;48.116;11.580;2023-08-12T06:51:21;95640.00;;;33.90
14023;BMP180;7086;48.116;11.580;2023-08-12T06:53:48;95639.00;;;34.00
14023;BMP180;7086;48.116;11.580;2023-08-12T06:56:15;95637.00;;;33.90
14023;BMP180;7086;48.116;11.580;2023-08-12T06:58:41;95634.00;;;34.00
14023;BMP180;7086;48.116;11.580;2023-08-12T07:01:08;95635.00;;;34.20
14023;BMP180;7086;48.116;11.580;2023-08-12T07:03:35;95628.00;;;34.50
14023;BMP180;7086;48.116;11.580;2023-08-12T07:06:03;95630.00;;;34.90
14023;BMP180;7086;48.116;11.580;2023-08-12T07:08:30;95638.00;;;35.10
14023;BMP180;7086;48.116;11.580;2023-08-12T07:10:57;95632.00;;;35.40
14023;BMP180;7086;48.116;11.580;2023-08-12T07:13:24;95635.00;;;35.70
14023;BMP180;7086;48.116;11.580;2023-08-12T07:15:50;95637.00;;;36.00
14023;BMP180;7086;48.116;11.580;2023-08-12T07:18:17;95638.00;;;36.30
14023;BMP180;7086;48.116;11.580;2023-08-12T07:20:44;95638.00;;;36.40
14023;BMP180;7086;48.116;11.580;2023-08-12T07:23:12;95640.00;;;36.50
14023;BMP180;7086;48.116;11.580;2023-08-12T07:25:39;95639.00;;;36.70
14023;BMP180;7086;48.116;11.580;2023-08-12T07:28:05;95636.00;;;36.90
14023;BMP180;7086;48.116;11.580;2023-08-12T07:30:34;95635.00;;;37.20
14023;BMP180;7086;48.116;11.580;2023-08-12T07:33:00;95632.00;;;37.60
14023;BMP180;7086;48.116;11.580;2023-08-12T07:35:27;95638.00;;;38.00
14023;BMP180;7086;48.116;11.580;2023-08-12T07:37:54;95633.00;;;38.30
14023;BMP180;7086;48.116;11.580;2023-08-12T07:40:22;95635.00;;;38.60
14023;BMP180;7086;48.116;11.580;2023-08-12T07:42:49;95633.00;;;38.80
14023;BMP180;7086;48.116;11.580;2023-08-12T07:45:15;95635.00;;;39.00
14023;BMP180;7086;48.116;11.580;2023-08-12T07:47:42;95635.00;;;39.20
14023;BMP180;7086;48.116;11.580;2023-08-12T07:50:09;95638.00;;;39.30
14023;BMP180;7086;48.116;11.580;2023-08-12T07:52:36;95637.00;;;39.40
14023;BMP180;7086;48.116;11.580;2023-08-12T07:55:03;95637.00;;;39.60
14023;BMP180;7086;48.116;11.580;2023-08-12T07:57:33;95643.00;;;39.80
14023;BMP180;7086;48.116;11.580;2023-08-12T07:59:59;95645.00;;;39.90
14023;BMP180;7086;48.116;11.580;2023-08-12T08:02:26;95617.00;;;40.20
14023;BMP180;7086;48.116;11.580;2023-08-12T08:04:53;95651.00;;;40.50
14023;BMP180;7086;48.116;11.580;2023-08-12T08:07:20;95654.00;;;40.90
14023;BMP180;7086;48.116;11.580;2023-08-12T08:09:46;95656.00;;;41.00
14023;BMP180;7086;48.116;11.580;2023-08-12T08:12:13;95640.00;;;41.10
14023;BMP180;7086;48.116;11.580;2023-08-12T08:14:41;95647.00;;;41.10
14023;BMP180;7086;48.116;11.580;2023-08-12T08:17:08;95645.00;;;41.10
14023;BMP180;7086;48.116;11.580;2023-08-12T08:19:35;95651.00;;;41.20
14023;BMP180;7086;48.116;11.580;2023-08-12T08:22:02;95631.00;;;41.30
14023;BMP180;7086;48.116;11.580;2023-08-12T08:24:29;95617.00;;;41.40
14023;BMP180;7086;48.116;11.580;2023-08-12T08:26:57;95633.00;;;41.50
14023;BMP180;7086;48.116;11.580;2023-08-12T08:29:24;95642.00;;;41.80
14023;BMP180;7086;48.116;11.580;2023-08-12T08:31:52;95641.00;;;41.90
14023;BMP180;7086;48.116;11.580;2023-08-12T08:34:19;95643.00;;;42.00
14023;BMP180;7086;48.116;11.580;2023-08-12T08:36:46;95644.00;;;42.10
14023;BMP180;7086;48.116;11.580;2023-08-12T08:39:12;95651.00;;;42.20
14023;BMP180;7086;48.116;11.580;2023-08-12T08:41:40;95646.00;;;42.10
14023;BMP180;7086;48.116;11.580;2023-08-12T08:44:08;95659.00;;;42.20
14023;BMP180;7086;48.116;11.580;2023-08-12T08:46:35;95644.00;;;42.40
14023;BMP180;7086;48.116;11.580;2023-08-12T08:49:04;95657.00;;;42.40
14023;BMP180;7086;48.116;11.580;2023-08-12T08:51:32;95659.00;;;42.40
14023;BMP180;7086;48.116;11.580;2023-08-12T08:53:59;95652.00;;;42.50
14023;BMP180;7086;48.116;11.580;2023-08-12T08:56:29;95654.00;;;42.60
14023;BMP180;7086;48.116;11.580;2023-08-12T08:58:57;95655.00;;;42.80
14023;BMP180;7086;48.116;11.580;2023-08-12T09:01:24;95642.00;;;42.90
14023;BMP180;7086;48.116;11.580;2023-08-12T09:03:52;95656.00;;;42.80
14023;BMP180;7086;48.116;11.580;2023-08-12T09:06:21;95647.00;;;42.60
14023;BMP180;7086;48.116;11.580;2023-08-12T09:08:51;95661.00;;;42.40
14023;BMP180;7086;48.116;11.580;2023-08-12T09:11:18;95664.00;;;42.10
14023;BMP180;7086;48.116;11.580;2023-08-12T09:13:45;95654.00;;;41.80
14023;BMP180;7086;48.116;11.580;2023-08-12T09:16:12;95661.00;;;41.50
14023;BMP180;7086;48.116;11.580;2023-08-12T09:18:40;95654.00;;;41.20
14023;BMP180;7086;48.116;11.580;2023-08-12T09:21:11;95637.00;;;40.90
14023;BMP180;7086;48.116;11.580;2023-08-12T09:23:41;95649.00;;;40.60
14023;BMP180;7086;48.116;11.580;2023-08-12T09:26:16;95664.00;;;40.40
14023;BMP180;7086;48.116;11.580;2023-08-12T09:28:43;95655.00;;;40.20
14023;BMP180;7086;48.116;11.580;2023-08-12T09:31:22;95658.00;;;40.00
14023;BMP180;7086;48.116;11.580;2023-08-12T09:33:49;95668.00;;;40.00
14023;BMP180;7086;48.116;11.580;2023-08-12T09:36:16;95666.00;;;39.90
14023;BMP180;7086;48.116;11.580;2023-08-12T09:38:44;95664.00;;;40.10
14023;BMP180;7086;48.116;11.580;2023-08-12T09:41:12;95665.00;;;40.20
14023;BMP180;7086;48.116;11.580;2023-08-12T09:43:40;95640.00;;;40.30
14023;BMP180;7086;48.116;11.580;2023-08-12T09:46:10;95669.00;;;40.30
14023;BMP180;7086;48.116;11.580;2023-08-12T09:48:37;95673.00;;;40.60
14023;BMP180;7086;48.116;11.580;2023-08-12T09:51:04;95654.00;;;40.70
14023;BMP180;7086;48.116;11.580;2023-08-12T09:53:32;95671.00;;;40.60
14023;BMP180;7086;48.116;11.580;2023-08-12T09:56:05;95652.00;;;40.50
14023;BMP180;7086;48.116;11.580;2023-08-12T09:58:33;95646.00;;;40.30
14023;BMP180;7086;48.116;11.580;2023-08-12T10:01:02;95677.00;;;40.00
14023;BMP180;7086;48.116;11.580;2023-08-12T10:03:30;95652.00;;;39.80
14023;BMP180;7086;48.116;11.580;2023-08-12T10:05:59;95656.00;;;39.60
14023;BMP180;7086;48.116;11.580;2023-08-12T10:08:27;95664.00;;;39.30
14023;BMP180;7086;48.116;11.580;2023-08-12T10:10:54;95652.00;;;39.30
14023;BMP180;7086;48.116;11.580;2023-08-12T10:13:22;95654.00;;;39.20
14023;BMP180;7086;48.116;11.580;2023-08-12T10:15:49;95660.00;;;39.20
14023;BMP180;7086;48.116;11.580;2023-08-12T10:18:18;95648.00;;;39.20
14023;BMP180;7086;48.116;11.580;2023-08-12T10:20:45;95658.00;;;39.30
14023;BMP180;7086;48.116;11.580;2023-08-12T10:23:14;95660.00;;;39.40
14023;BMP180;7086;48.116;11.580;2023-08-12T10:25:43;95660.00;;;39.60
14023;BMP180;7086;48.116;11.580;2023-08-12T10:28:11;95658.00;;;39.80
14023;BMP180;7086;48.116;11.580;2023-08-12T10:30:40;95658.00;;;39.90
14023;BMP180;7086;48.116;11.580;2023-08-12T10:33:08;95652.00;;;40.00
14023;BMP180;7086;48.116;11.580;2023-08-12T10:35:43;95654.00;;;40.00
14023;BMP180;7086;48.116;11.580;2023-08-12T10:38:17;95638.00;;;39.90
14023;BMP180;7086;48.116;11.580;2023-08-12T10:40:44;95651.00;;;40.00
14023;BMP180;7086;48.116;11.580;2023-08-12T10:43:12;95662.00;;;40.20
14023;BMP180;7086;48.116;11.580;2023-08-12T10:45:47;95651.00;;;40.50
14023;BMP180;7086;48.116;11.580;2023-08-12T10:48:18;95654.00;;;40.90
14023;BMP180;7086;48.116;11.580;2023-08-12T10:50:48;95652.00;;;41.20
14023;BMP180;7086;48.116;11.580;2023-08-12T10:53:24;95651.00;;;41.50
14023;BMP180;7086;48.116;11.580;2023-08-12T10:55:56;95640.00;;;41.80
14023;BMP180;7086;48.116;11.580;2023-08-12T10:58:27;95636.00;;;42.00
14023;BMP180;7086;48.116;11.580;2023-08-12T11:00:56;95630.00;;;42.10
14023;BMP180;7086;48.116;11.580;2023-08-12T11:03:23;95654.00;;;42.30
14023;BMP180;7086;48.116;11.580;2023-08-12T11:05:50;95650.00;;;42.50
14023;BMP180;7086;48.116;11.580;2023-08-12T11:08:24;95644.00;;;42.80
14023;BMP180;7086;48.116;11.580;2023-08-12T11:10:54;95640.00;;;43.10
14023;BMP180;7086;48.116;11.580;2023-08-12T11:13:21;95633.00;;;43.40
14023;BMP180;7086;48.116;11.580;2023-08-12T11:15:48;95622.00;;;43.60
14023;BMP180;7086;48.116;11.580;2023-08-12T11:18:18;95631.00;;;43.80
14023;BMP180;7086;48.116;11.580;2023-08-12T11:20:47;95632.00;;;43.90
14023;BMP180;7086;48.116;11.580;2023-08-12T11:23:14;95636.00;;;44.10
14023;BMP180;7086;48.116;11.580;2023-08-12T11:25:43;95619.00;;;44.10
14023;BMP180;7086;48.116;11.580;2023-08-12T11:28:11;95621.00;;;44.30
14023;BMP180;7086;48.116;11.580;2023-08-12T11:30:40;95633.00;;;44.40
14023;BMP180;7086;48.116;11.580;2023-08-12T11:33:07;95633.00;;;44.40
14023;BMP180;7086;48.116;11.580;2023-08-12T11:35:37;95619.00;;;44.50
14023;BMP180;7086;48.116;11.580;2023-08-12T11:38:05;95615.00;;;44.50
14023;BMP180;7086;48.116;11.580;2023-08-12T11:40:33;95620.00;;;44.60
14023;BMP180;7086;48.116;11.580;2023-08-12T11:43:01;95618.00;;;44.70
14023;BMP180;7086;48.116;11.580;2023-08-12T11:45:28;95614.00;;;44.80
14023;BMP180;7086;48.116;11.580;2023-08-12T11:47:55;95621.00;;;44.80
14023;BMP180;7086;48.116;11.580;2023-08-12T11:50:24;95617.00;;;44.70
14023;BMP180;7086;48.116;11.580;2023-08-12T11:52:53;95611.00;;;44.60
14023;BMP180;7086;48.116;11.580;2023-08-12T11:55:20;95604.00;;;44.60
14023;BMP180;7086;48.116;11.580;2023-08-12T11:57:47;95604.00;;;44.60
14023;BMP180;7086;48.116;11.580;2023-08-12T12:00:14;95601.00;;;44.60
14023;BMP180;7086;48.116;11.580;2023-08-12T12:02:49;95616.00;;;44.40
14023;BMP180;7086;48.116;11.580;2023-08-12T12:05:16;95593.00;;;44.00
14023;BMP180;7086;48.116;11.580;2023-08-12T12:07:43;95601.00;;;43.30
14023;BMP180;7086;48.116;11.580;2023-08-12T12:10:14;95603.00;;;42.70
14023;BMP180;7086;48.116;11.580;2023-08-12T12:12:44;95610.00;;;42.00
14023;BMP180;7086;48.116;11.580;2023-08-12T12:15:13;95603.00;;;41.40
14023;BMP180;7086;48.116;11.580;2023-08-12T12:17:41;95603.00;;;40.90
14023;BMP180;7086;48.116;11.580;2023-08-12T12:20:08;95595.00;;;40.40
14023;BMP180;7086;48.116;11.580;2023-08-12T12:22:37;95598.00;;;39.90
14023;BMP180;7086;48.116;11.580;2023-08-12T12:25:08;95591.00;;;39.60
14023;BMP180;7086;48.116;11.580;2023-08-12T12:27:37;95593.00;;;39.20
14023;BMP180;7086;48.116;11.580;2023-08-12T12:30:05;95589.00;;;39.00
14023;BMP180;7086;48.116;11.580;2023-08-12T12:32:32;95595.00;;;38.80
14023;BMP180;7086;48.116;11.580;2023-08-12T12:34:59;95591.00;;;38.50
14023;BMP180;7086;48.116;11.580;2023-08-12T12:37:26;95579.00;;;38.40
14023;BMP180;7086;48.116;11.580;2023-08-12T12:39:54;95584.00;;;38.20
14023;BMP180;7086;48.116;11.580;2023-08-12T12:42:21;95590.00;;;38.10
14023;BMP180;7086;48.116;11.580;2023-08-12T12:44:49;95587.00;;;38.00
14023;BMP180;7086;48.116;11.580;2023-08-12T12:47:16;95587.00;;;37.90
14023;BMP180;7086;48.116;11.580;2023-08-12T12:49:45;95592.00;;;37.90
14023;BMP180;7086;48.116;11.580;2023-08-12T12:52:12;95586.00;;;37.80
14023;BMP180;7086;48.116;11.580;2023-08-12T12:54:39;95577.00;;;37.70
14023;BMP180;7086;48.116;11.580;2023-08-12T12:57:06;95579.00;;;37.60
14023;BMP180;7086;48.116;11.580;2023-08-12T12:59:32;95572.00;;;37.50
14023;BMP180;7086;48.116;11.580;2023-08-12T13:02:01;95568.00;;;37.40
14023;BMP180;7086;48.116;11.580;2023-08-12T13:04:27;95563.00;;;37.40
14023;BMP180;7086;48.116;11.580;2023-08-12T13:06:54;95573.00;;;37.30
14023;BMP180;7086;48.116;11.580;2023-08-12T13:09:24;95576.00;;;37.30
14023;BMP180;7086;48.116;11.580;2023-08-12T13:11:51;95576.00;;;37.30
14023;BMP180;7086;48.116;11.580;2023-08-12T13:14:18;95579.00;;;37.30
14023;BMP180;7086;48.116;11.580;2023-08-12T13:16:46;95582.00;;;37.20
14023;BMP180;7086;48.116;11.580;2023-08-12T13:19:14;95547.00;;;37.10
14023;BMP180;7086;48.116;11.580;2023-08-12T13:21:41;95564.00;;;37.00
14023;BMP180;7086;48.116;11.580;2023-08-12T13:24:08;95573.00;;;37.00
14023;BMP180;7086;48.116;11.580;2023-08-12T13:26:35;95576.00;;;37.00
14023;BMP180;7086;48.116;11.580;2023-08-12T13:29:01;95570.00;;;37.00
14023;BMP180;7086;48.116;11.580;2023-08-12T13:31:29;95568.00;;;37.10
14023;BMP180;7086;48.116;11.580;2023-08-12T13:33:55;95567.00;;;37.20
14023;BMP180;7086;48.116;11.580;2023-08-12T13:36:24;95546.00;;;37.40
14023;BMP180;7086;48.116;11.580;2023-08-12T13:38:50;95563.00;;;37.40
14023;BMP180;7086;48.116;11.580;2023-08-12T13:41:17;95564.00;;;37.50
14023;BMP180;7086;48.116;11.580;2023-08-12T13:43:44;95562.00;;;37.60
14023;BMP180;7086;48.116;11.580;2023-08-12T13:46:12;95555.00;;;37.50
14023;BMP180;7086;48.116;11.580;2023-08-12T13:48:39;95555.00;;;37.50
14023;BMP180;7086;48.116;11.580;2023-08-12T13:51:07;95557.00;;;37.50
14023;BMP180;7086;48.116;11.580;2023-08-12T13:53:35;95546.00;;;37.60
14023;BMP180;7086;48.116;11.580;2023-08-12T13:56:02;95554.00;;;37.70
14023;BMP180;7086;48.116;11.580;2023-08-12T13:58:29;95548.00;;;37.80
14023;BMP180;7086;48.116;11.580;2023-08-12T14:00:56;95545.00;;;37.80
14023;BMP180;7086;48.116;11.580;2023-08-12T14:03:23;95538.00;;;37.80
14023;BMP180;7086;48.116;11.580;2023-08-12T14:05:50;95541.00;;;37.80
14023;BMP180;7086;48.116;11.580;2023-08-12T14:08:17;95549.00;;;37.80
14023;BMP180;7086;48.116;11.580;2023-08-12T14:10:46;95549.00;;;37.80